createdAt,value
2018-09-26T00:00:30.761Z,22.7
2018-09-26T00:01:35.407Z,22.7
2018-09-26T00:02:40.550Z,22.7
2018-09-26T00:03:45.795Z,22.7
2018-09-26T00:04:50.944Z,22.7
2018-09-26T00:05:56.376Z,22.7
2018-09-26T00:07:01.959Z,22.7
2018-09-26T00:08:06.835Z,22.7
2018-09-26T00:09:12.280Z,22.7
2018-09-26T00:10:17.496Z,22.7
2018-09-26T00:11:22.921Z,22.7
2018-09-26T00:12:28.480Z,22.7
2018-09-26T00:13:33.440Z,22.7
2018-09-26T00:14:38.873Z,22.7
2018-09-26T00:15:44.399Z,22.7
2018-09-26T00:16:49.592Z,22.7
2018-09-26T00:17:54.445Z,22.7
2018-09-26T00:18:59.287Z,22.7
2018-09-26T00:20:04.745Z,22.7
2018-09-26T00:21:09.908Z,22.7
2018-09-26T00:22:15.791Z,22.7
2018-09-26T00:23:20.655Z,22.7
2018-09-26T00:25:45.519Z,22.7
2018-09-26T00:26:50.952Z,22.7
2018-09-26T00:27:56.685Z,22.7
2018-09-26T00:29:01.961Z,22.7
2018-09-26T00:30:07.116Z,22.7
2018-09-26T00:31:12.924Z,22.7
2018-09-26T00:32:17.858Z,22.7
2018-09-26T00:33:23.288Z,22.7
2018-09-26T00:34:28.658Z,22.6
2018-09-26T00:35:33.822Z,22.6
2018-09-26T00:36:38.980Z,22.6
2018-09-26T00:37:44.512Z,22.6
2018-09-26T00:38:50.197Z,22.6
2018-09-26T00:39:55.639Z,22.6
2018-09-26T00:41:01.078Z,22.6
2018-09-26T00:42:06.297Z,22.6
2018-09-26T00:43:12.053Z,22.6
2018-09-26T00:44:17.050Z,22.6
2018-09-26T00:45:22.502Z,22.6
2018-09-26T00:46:42.867Z,22.6
2018-09-26T00:47:48.293Z,22.6
2018-09-26T00:48:53.560Z,22.6
2018-09-26T00:49:58.737Z,22.6
2018-09-26T00:51:04.164Z,22.6
2018-09-26T00:52:09.947Z,22.6
2018-09-26T00:53:14.862Z,22.6
2018-09-26T00:54:20.017Z,22.6
2018-09-26T00:55:40.093Z,22.6
2018-09-26T00:56:45.234Z,22.6
2018-09-26T00:57:50.645Z,22.6
2018-09-26T00:58:56.088Z,22.6
2018-09-26T01:00:00.953Z,22.6
2018-09-26T01:01:05.802Z,22.6
2018-09-26T01:02:10.402Z,22.6
2018-09-26T01:03:15.882Z,22.6
2018-09-26T01:04:21.633Z,22.6
2018-09-26T01:05:26.836Z,22.6
2018-09-26T01:06:32.663Z,22.6
2018-09-26T01:07:38.173Z,22.6
2018-09-26T01:08:43.621Z,22.6
2018-09-26T01:09:49.023Z,22.6
2018-09-26T01:10:54.661Z,22.6
2018-09-26T01:12:00.120Z,22.6
2018-09-26T01:13:05.569Z,22.6
2018-09-26T01:14:10.537Z,22.6
2018-09-26T01:15:15.768Z,22.6
2018-09-26T01:16:21.162Z,22.6
2018-09-26T01:17:26.657Z,22.6
2018-09-26T01:18:32.545Z,22.6
2018-09-26T01:19:37.749Z,22.6
2018-09-26T01:20:43.313Z,22.6
2018-09-26T01:21:48.600Z,22.6
2018-09-26T01:22:54.032Z,22.6
2018-09-26T01:23:59.292Z,22.6
2018-09-26T01:25:04.746Z,22.6
2018-09-26T01:26:09.898Z,22.6
2018-09-26T01:27:14.851Z,22.6
2018-09-26T01:28:20.348Z,22.6
2018-09-26T01:29:25.276Z,22.6
2018-09-26T01:30:30.979Z,22.6
2018-09-26T01:31:36.550Z,22.6
2018-09-26T01:32:42.204Z,22.6
2018-09-26T01:33:47.394Z,22.6
2018-09-26T01:34:52.905Z,22.6
2018-09-26T01:35:58.049Z,22.6
2018-09-26T01:37:03.471Z,22.6
2018-09-26T01:38:08.947Z,22.6
2018-09-26T01:39:14.375Z,22.6
2018-09-26T01:40:20.122Z,22.6
2018-09-26T01:41:25.688Z,22.6
2018-09-26T01:42:31.436Z,22.6
2018-09-26T01:43:36.579Z,22.6
2018-09-26T01:44:41.262Z,22.6
2018-09-26T01:45:46.118Z,22.6
2018-09-26T01:46:51.261Z,22.6
2018-09-26T01:47:56.134Z,22.6
2018-09-26T01:49:01.561Z,22.6
2018-09-26T01:50:06.136Z,22.6
2018-09-26T01:51:11.661Z,22.6
2018-09-26T01:52:17.384Z,22.6
2018-09-26T01:53:22.526Z,22.6
2018-09-26T01:54:28.132Z,22.6
2018-09-26T01:55:32.999Z,22.6
2018-09-26T01:56:38.140Z,22.6
2018-09-26T01:57:44.069Z,22.6
2018-09-26T01:58:49.630Z,22.6
2018-09-26T01:59:54.538Z,22.6
2018-09-26T02:00:59.937Z,22.6
2018-09-26T02:02:04.618Z,22.6
2018-09-26T02:03:09.767Z,22.6
2018-09-26T02:04:15.479Z,22.6
2018-09-26T02:05:20.678Z,22.6
2018-09-26T02:06:26.274Z,22.5
2018-09-26T02:07:31.434Z,22.6
2018-09-26T02:08:36.650Z,22.6
2018-09-26T02:09:42.357Z,22.6
2018-09-26T02:10:47.495Z,22.6
2018-09-26T02:11:52.673Z,22.6
2018-09-26T02:12:57.805Z,22.6
2018-09-26T02:14:02.109Z,22.5
2018-09-26T02:15:07.264Z,22.6
2018-09-26T02:16:13.190Z,22.6
2018-09-26T02:17:18.656Z,22.6
2018-09-26T02:18:24.115Z,22.6
2018-09-26T02:19:44.913Z,22.5
2018-09-26T02:20:50.444Z,22.5
2018-09-26T02:21:56.346Z,22.5
2018-09-26T02:23:01.774Z,22.6
2018-09-26T02:24:06.672Z,22.5
2018-09-26T02:25:11.879Z,22.5
2018-09-26T02:26:17.024Z,22.5
2018-09-26T02:27:21.949Z,22.6
2018-09-26T02:28:27.538Z,22.6
2018-09-26T02:29:32.965Z,22.5
2018-09-26T02:30:38.262Z,22.5
2018-09-26T02:31:43.707Z,22.5
2018-09-26T02:32:49.132Z,22.5
2018-09-26T02:33:54.689Z,22.5
2018-09-26T02:35:00.144Z,22.5
2018-09-26T02:36:05.106Z,22.5
2018-09-26T02:37:10.940Z,22.5
2018-09-26T02:38:16.115Z,22.5
2018-09-26T02:39:20.983Z,22.5
2018-09-26T02:40:26.990Z,22.5
2018-09-26T02:41:31.926Z,22.5
2018-09-26T02:42:37.466Z,22.5
2018-09-26T02:43:42.895Z,22.5
2018-09-26T02:44:48.432Z,22.5
2018-09-26T02:45:54.148Z,22.5
2018-09-26T02:46:59.443Z,22.5
2018-09-26T02:48:04.684Z,22.5
2018-09-26T02:49:09.659Z,22.5
2018-09-26T02:50:15.091Z,22.5
2018-09-26T02:51:20.286Z,22.5
2018-09-26T02:52:25.579Z,22.5
2018-09-26T02:53:31.049Z,22.5
2018-09-26T02:54:36.395Z,22.5
2018-09-26T02:55:41.853Z,22.5
2018-09-26T02:56:47.873Z,22.5
2018-09-26T02:57:52.770Z,22.5
2018-09-26T02:58:57.660Z,22.5
2018-09-26T03:00:02.842Z,22.5
2018-09-26T03:01:07.456Z,22.5
2018-09-26T03:02:12.896Z,22.5
2018-09-26T03:03:18.042Z,22.5
2018-09-26T03:04:23.888Z,22.5
2018-09-26T03:05:29.140Z,22.5
2018-09-26T03:06:34.982Z,22.5
2018-09-26T03:07:40.444Z,22.5
2018-09-26T03:08:45.872Z,22.5
2018-09-26T03:09:51.532Z,22.5
2018-09-26T03:10:56.824Z,22.5
2018-09-26T03:12:02.685Z,22.5
2018-09-26T03:13:08.502Z,22.5
2018-09-26T03:14:13.741Z,22.5
2018-09-26T03:15:18.891Z,22.5
2018-09-26T03:16:24.684Z,22.5
2018-09-26T03:17:29.615Z,22.5
2018-09-26T03:18:35.693Z,22.5
2018-09-26T03:19:41.267Z,22.5
2018-09-26T03:20:46.705Z,22.5
2018-09-26T03:21:52.280Z,22.5
2018-09-26T03:22:57.801Z,22.5
2018-09-26T03:24:02.948Z,22.5
2018-09-26T03:25:08.946Z,22.5
2018-09-26T03:26:14.154Z,22.5
2018-09-26T03:27:19.301Z,22.5
2018-09-26T03:28:24.586Z,22.5
2018-09-26T03:29:29.745Z,22.5
2018-09-26T03:30:35.133Z,22.5
2018-09-26T03:31:40.406Z,22.5
2018-09-26T03:32:45.283Z,22.5
2018-09-26T03:33:51.155Z,22.5
2018-09-26T03:34:56.550Z,22.5
2018-09-26T03:36:02.053Z,22.5
2018-09-26T03:37:07.175Z,22.5
2018-09-26T03:38:12.613Z,22.5
2018-09-26T03:39:18.131Z,22.5
2018-09-26T03:40:23.935Z,22.4
2018-09-26T03:41:29.187Z,22.4
2018-09-26T03:42:35.062Z,22.4
2018-09-26T03:43:40.493Z,22.4
2018-09-26T03:44:45.920Z,22.4
2018-09-26T03:45:50.927Z,22.4
2018-09-26T03:46:56.074Z,22.4
2018-09-26T03:48:01.418Z,22.4
2018-09-26T03:49:06.888Z,22.4
2018-09-26T03:50:11.785Z,22.4
2018-09-26T03:51:16.649Z,22.4
2018-09-26T03:52:22.047Z,22.4
2018-09-26T03:53:27.190Z,22.4
2018-09-26T03:54:32.831Z,22.4
2018-09-26T03:55:38.028Z,22.4
2018-09-26T03:56:43.244Z,22.4
2018-09-26T03:57:49.191Z,22.4
2018-09-26T03:58:54.677Z,22.4
2018-09-26T03:59:59.831Z,22.4
2018-09-26T04:01:05.198Z,22.4
2018-09-26T04:02:10.351Z,22.4
2018-09-26T04:03:15.506Z,22.4
2018-09-26T04:04:20.932Z,22.4
2018-09-26T04:05:26.402Z,22.4
2018-09-26T04:06:31.868Z,22.4
2018-09-26T04:07:37.049Z,22.3
2018-09-26T04:08:42.233Z,22.3
2018-09-26T04:09:47.336Z,22.3
2018-09-26T04:10:52.246Z,22.3
2018-09-26T04:11:57.392Z,22.3
2018-09-26T04:13:02.971Z,22.3
2018-09-26T04:14:08.223Z,22.3
2018-09-26T04:15:13.394Z,22.3
2018-09-26T04:16:18.804Z,22.2
2018-09-26T04:17:24.241Z,22.2
2018-09-26T04:18:29.641Z,22.2
2018-09-26T04:19:34.836Z,22.2
2018-09-26T04:20:39.993Z,22.1
2018-09-26T04:21:45.287Z,22.1
2018-09-26T04:22:50.752Z,22.1
2018-09-26T04:23:55.337Z,22.1
2018-09-26T04:25:00.448Z,22.1
2018-09-26T04:26:05.441Z,22.1
2018-09-26T04:27:11.109Z,22.1
2018-09-26T04:28:17.733Z,22
2018-09-26T04:29:23.198Z,22
2018-09-26T04:30:28.845Z,22
2018-09-26T04:31:34.563Z,22
2018-09-26T04:32:40.180Z,22
2018-09-26T04:33:46.746Z,22
2018-09-26T04:34:52.199Z,22
2018-09-26T04:35:57.683Z,21.9
2018-09-26T04:37:02.578Z,21.9
2018-09-26T04:38:07.738Z,21.9
2018-09-26T04:39:12.624Z,21.9
2018-09-26T04:40:18.548Z,21.9
2018-09-26T04:41:23.184Z,21.8
2018-09-26T04:42:29.234Z,21.8
2018-09-26T04:43:34.083Z,21.8
2018-09-26T04:44:39.565Z,21.8
2018-09-26T04:45:45.080Z,21.8
2018-09-26T04:46:50.517Z,21.7
2018-09-26T04:47:56.000Z,21.7
2018-09-26T04:49:01.459Z,21.7
2018-09-26T04:50:06.614Z,21.7
2018-09-26T04:51:12.052Z,21.7
2018-09-26T04:52:17.207Z,21.7
2018-09-26T04:53:22.636Z,21.7
2018-09-26T04:54:27.995Z,21.7
2018-09-26T04:55:33.228Z,21.7
2018-09-26T04:56:38.663Z,21.6
2018-09-26T04:57:44.139Z,21.6
2018-09-26T04:58:49.858Z,21.6
2018-09-26T04:59:54.457Z,21.6
2018-09-26T05:01:00.248Z,21.6
2018-09-26T05:02:04.270Z,21.6
2018-09-26T05:03:09.138Z,21.6
2018-09-26T05:04:14.828Z,21.6
2018-09-26T05:05:20.064Z,21.6
2018-09-26T05:06:25.642Z,21.6
2018-09-26T05:07:31.091Z,21.6
2018-09-26T05:08:36.105Z,21.5
2018-09-26T05:09:41.691Z,21.6
2018-09-26T05:10:46.846Z,21.5
2018-09-26T05:11:52.074Z,21.5
2018-09-26T05:12:57.382Z,21.5
2018-09-26T05:14:02.015Z,21.5
2018-09-26T05:15:07.262Z,21.5
2018-09-26T05:16:12.950Z,21.5
2018-09-26T05:17:18.380Z,21.5
2018-09-26T05:18:23.599Z,21.5
2018-09-26T05:19:43.545Z,21.5
2018-09-26T05:20:49.033Z,21.5
2018-09-26T05:21:54.914Z,21.5
2018-09-26T05:23:00.129Z,21.4
2018-09-26T05:24:04.880Z,21.4
2018-09-26T05:25:10.037Z,21.4
2018-09-26T05:26:15.619Z,21.4
2018-09-26T05:27:20.909Z,21.4
2018-09-26T05:28:40.980Z,21.4
2018-09-26T05:29:46.123Z,21.4
2018-09-26T05:30:51.701Z,21.4
2018-09-26T05:31:56.555Z,21.4
2018-09-26T05:33:01.723Z,21.4
2018-09-26T05:34:06.608Z,21.4
2018-09-26T05:35:12.069Z,21.4
2018-09-26T05:36:17.011Z,21.4
2018-09-26T05:37:22.479Z,21.4
2018-09-26T05:38:27.471Z,21.4
2018-09-26T05:39:32.951Z,21.4
2018-09-26T05:40:37.597Z,21.4
2018-09-26T05:41:43.033Z,21.4
2018-09-26T05:42:49.151Z,21.3
2018-09-26T05:43:54.035Z,21.4
2018-09-26T05:44:58.953Z,21.3
2018-09-26T05:46:04.342Z,21.3
2018-09-26T05:47:09.815Z,21.3
2018-09-26T05:48:15.314Z,21.3
2018-09-26T05:49:21.067Z,21.3
2018-09-26T05:50:26.221Z,21.3
2018-09-26T05:51:32.047Z,21.3
2018-09-26T05:52:37.513Z,21.3
2018-09-26T05:53:42.671Z,21.3
2018-09-26T05:54:48.345Z,21.3
2018-09-26T05:55:53.258Z,21.3
2018-09-26T05:56:58.705Z,21.3
2018-09-26T05:58:04.108Z,21.3
2018-09-26T05:59:09.388Z,21.3
2018-09-26T06:00:14.371Z,21.3
2018-09-26T06:01:20.577Z,21.3
2018-09-26T06:02:26.014Z,21.3
2018-09-26T06:03:31.576Z,21.3
2018-09-26T06:04:37.051Z,21.3
2018-09-26T06:05:42.200Z,21.3
2018-09-26T06:06:47.131Z,21.3
2018-09-26T06:07:52.338Z,21.3
2018-09-26T06:08:57.846Z,21.3
2018-09-26T06:10:03.032Z,21.3
2018-09-26T06:11:07.900Z,21.2
2018-09-26T06:12:12.809Z,21.2
2018-09-26T06:13:17.922Z,21.2
2018-09-26T06:14:23.043Z,21.2
2018-09-26T06:15:28.875Z,21.2
2018-09-26T06:16:33.748Z,21.2
2018-09-26T06:17:38.898Z,21.2
2018-09-26T06:18:44.714Z,21.2
2018-09-26T06:19:49.860Z,21.2
2018-09-26T06:20:54.459Z,21.2
2018-09-26T06:21:59.927Z,21.2
2018-09-26T06:23:04.789Z,21.2
2018-09-26T06:24:10.265Z,21.2
2018-09-26T06:25:16.371Z,21.2
2018-09-26T06:26:21.814Z,21.2
2018-09-26T06:27:27.562Z,21.2
2018-09-26T06:28:32.800Z,21.2
2018-09-26T06:29:38.261Z,21.2
2018-09-26T06:30:43.853Z,21.2
2018-09-26T06:31:48.827Z,21.1
2018-09-26T06:32:53.997Z,21.2
2018-09-26T06:33:59.493Z,21.2
2018-09-26T06:35:04.719Z,21.2
2018-09-26T06:36:10.265Z,21.2
2018-09-26T06:37:16.049Z,21.2
2018-09-26T06:38:21.251Z,21.2
2018-09-26T06:39:26.732Z,21.2
2018-09-26T06:40:32.132Z,21.2
2018-09-26T06:41:37.176Z,21.2
2018-09-26T06:42:42.054Z,21.2
2018-09-26T06:43:47.561Z,21.1
2018-09-26T06:44:52.700Z,21.1
2018-09-26T06:45:58.380Z,21.2
2018-09-26T06:47:03.806Z,21.2
2018-09-26T06:48:08.872Z,21.2
2018-09-26T06:49:14.600Z,21.2
2018-09-26T06:50:19.230Z,21.2
2018-09-26T06:51:24.511Z,21.2
2018-09-26T06:52:44.718Z,21.1
2018-09-26T06:53:50.053Z,21.2
2018-09-26T06:54:55.817Z,21.2
2018-09-26T06:56:00.973Z,21.2
2018-09-26T06:57:06.132Z,21.2
2018-09-26T06:58:11.713Z,21.2
2018-09-26T06:59:17.147Z,21.2
2018-09-26T07:00:22.085Z,21.2
2018-09-26T07:01:28.113Z,21.2
2018-09-26T07:02:32.993Z,21.2
2018-09-26T07:03:38.515Z,21.2
2018-09-26T07:04:43.492Z,21.2
2018-09-26T07:05:48.919Z,21.2
2018-09-26T07:06:54.285Z,21.2
2018-09-26T07:07:59.292Z,21.2
2018-09-26T07:09:04.432Z,21.2
2018-09-26T07:10:09.852Z,21.2
2018-09-26T07:11:15.287Z,21.2
2018-09-26T07:12:20.717Z,21.2
2018-09-26T07:13:26.634Z,21.2
2018-09-26T07:14:32.101Z,21.2
2018-09-26T07:15:37.833Z,21.2
2018-09-26T07:16:42.714Z,21.2
2018-09-26T07:17:48.229Z,21.2
2018-09-26T07:18:53.349Z,21.3
2018-09-26T07:19:58.812Z,21.3
2018-09-26T07:21:04.024Z,21.3
2018-09-26T07:22:10.642Z,21.3
2018-09-26T07:23:15.800Z,21.4
2018-09-26T07:24:20.945Z,21.4
2018-09-26T07:25:26.709Z,21.4
2018-09-26T07:26:32.311Z,21.4
2018-09-26T07:27:38.197Z,21.4
2018-09-26T07:28:43.130Z,21.5
2018-09-26T07:29:48.562Z,21.5
2018-09-26T07:30:54.296Z,21.5
2018-09-26T07:31:59.527Z,21.5
2018-09-26T07:33:04.960Z,21.5
2018-09-26T07:34:10.684Z,21.5
2018-09-26T07:35:15.589Z,21.6
2018-09-26T07:36:20.742Z,21.6
2018-09-26T07:37:41.091Z,21.6
2018-09-26T07:38:45.989Z,21.6
2018-09-26T07:39:51.118Z,21.6
2018-09-26T07:40:56.691Z,21.6
2018-09-26T07:42:01.944Z,21.6
2018-09-26T07:43:07.093Z,21.6
2018-09-26T07:44:12.285Z,21.6
2018-09-26T07:45:17.782Z,21.6
2018-09-26T07:46:23.344Z,21.7
2018-09-26T07:47:29.023Z,21.7
2018-09-26T07:48:33.945Z,21.7
2018-09-26T07:49:39.373Z,21.7
2018-09-26T07:50:44.599Z,21.7
2018-09-26T07:51:50.050Z,21.7
2018-09-26T07:52:55.254Z,21.7
2018-09-26T07:54:00.559Z,21.7
2018-09-26T07:55:05.791Z,21.7
2018-09-26T07:56:11.228Z,21.8
2018-09-26T07:57:16.433Z,21.8
2018-09-26T07:58:22.128Z,21.8
2018-09-26T07:59:27.558Z,21.8
2018-09-26T08:00:33.449Z,21.8
2018-09-26T08:01:39.151Z,21.8
2018-09-26T08:02:44.319Z,21.8
2018-09-26T08:03:49.766Z,21.8
2018-09-26T08:04:53.800Z,21.8
2018-09-26T08:05:59.007Z,21.8
2018-09-26T08:07:04.949Z,21.8
2018-09-26T08:08:10.187Z,21.8
2018-09-26T08:09:15.365Z,21.9
2018-09-26T08:10:20.770Z,21.9
2018-09-26T08:11:26.391Z,21.9
2018-09-26T08:12:33.002Z,21.9
2018-09-26T08:13:38.490Z,21.9
2018-09-26T08:14:43.712Z,21.9
2018-09-26T08:15:49.400Z,21.9
2018-09-26T08:16:54.261Z,21.9
2018-09-26T08:17:59.213Z,21.9
2018-09-26T08:19:04.429Z,21.9
2018-09-26T08:20:09.442Z,21.9
2018-09-26T08:21:14.098Z,22
2018-09-26T08:22:19.605Z,22
2018-09-26T08:23:25.386Z,22
2018-09-26T08:24:31.189Z,22
2018-09-26T08:25:35.603Z,22
2018-09-26T08:26:41.043Z,22
2018-09-26T08:27:46.223Z,22
2018-09-26T08:28:51.690Z,22
2018-09-26T08:29:56.945Z,22.1
2018-09-26T08:31:03.023Z,22.1
2018-09-26T08:32:08.238Z,22.1
2018-09-26T08:33:12.856Z,22.1
2018-09-26T08:34:18.271Z,22.1
2018-09-26T08:35:23.213Z,22.1
2018-09-26T08:36:28.629Z,22.1
2018-09-26T08:37:34.517Z,22.1
2018-09-26T08:38:39.394Z,22.1
2018-09-26T08:39:45.178Z,22.1
2018-09-26T08:40:49.794Z,22.1
2018-09-26T08:41:54.650Z,22.1
2018-09-26T08:43:00.896Z,22.1
2018-09-26T08:44:06.399Z,22.2
2018-09-26T08:45:11.311Z,22.2
2018-09-26T08:46:16.840Z,22.2
2018-09-26T08:47:21.413Z,22.2
2018-09-26T08:48:27.277Z,22.2
2018-09-26T08:49:31.892Z,22.2
2018-09-26T08:50:37.129Z,22.2
2018-09-26T08:51:42.948Z,22.2
2018-09-26T08:52:48.089Z,22.2
2018-09-26T08:53:53.562Z,22.2
2018-09-26T08:54:59.695Z,22.2
2018-09-26T08:56:04.838Z,22.2
2018-09-26T08:57:10.030Z,22.2
2018-09-26T08:58:15.207Z,22.2
2018-09-26T08:59:20.347Z,22.2
2018-09-26T09:01:45.981Z,22.2
2018-09-26T09:02:51.175Z,22.2
2018-09-26T09:03:57.010Z,22.2
2018-09-26T09:05:02.435Z,22.2
2018-09-26T09:06:07.634Z,22.2
2018-09-26T09:07:13.546Z,22.2
2018-09-26T09:08:18.417Z,22.2
2018-09-26T09:09:23.567Z,22.2
2018-09-26T09:10:43.661Z,22.2
2018-09-26T09:11:49.121Z,22.2
2018-09-26T09:12:55.084Z,22.2
2018-09-26T09:13:59.787Z,22.2
2018-09-26T09:15:04.736Z,22.2
2018-09-26T09:16:09.228Z,22.2
2018-09-26T09:17:14.380Z,22.2
2018-09-26T09:18:19.549Z,22.2
2018-09-26T09:19:24.593Z,22.3
2018-09-26T09:20:30.033Z,22.2
2018-09-26T09:21:35.441Z,22.2
2018-09-26T09:22:40.868Z,22.3
2018-09-26T09:23:46.019Z,22.3
2018-09-26T09:24:50.938Z,22.3
2018-09-26T09:25:55.534Z,22.3
2018-09-26T09:27:00.815Z,22.2
2018-09-26T09:28:06.464Z,22.2
2018-09-26T09:29:11.620Z,22.3
2018-09-26T09:30:16.829Z,22.3
2018-09-26T09:31:22.239Z,22.3
2018-09-26T09:32:26.593Z,22.3
2018-09-26T09:33:32.404Z,22.3
2018-09-26T09:34:37.583Z,22.3
2018-09-26T09:35:42.478Z,22.3
2018-09-26T09:36:47.643Z,22.3
2018-09-26T09:37:52.821Z,22.3
2018-09-26T09:38:57.985Z,22.3
2018-09-26T09:40:03.568Z,22.3
2018-09-26T09:41:08.470Z,22.3
2018-09-26T09:42:13.626Z,22.3
2018-09-26T09:43:19.061Z,22.3
2018-09-26T09:44:24.293Z,22.3
2018-09-26T09:45:30.517Z,22.3
2018-09-26T09:46:35.959Z,22.3
2018-09-26T09:47:40.953Z,22.3
2018-09-26T09:48:46.400Z,22.3
2018-09-26T09:49:51.362Z,22.3
2018-09-26T09:50:56.830Z,22.3
2018-09-26T09:52:02.910Z,22.3
2018-09-26T09:53:08.146Z,22.3
2018-09-26T09:54:13.225Z,22.3
2018-09-26T09:55:18.634Z,22.3
2018-09-26T09:56:23.665Z,22.3
2018-09-26T09:57:29.507Z,22.3
2018-09-26T09:58:34.703Z,22.3
2018-09-26T09:59:40.377Z,22.3
2018-09-26T10:00:46.178Z,22.3
2018-09-26T10:01:51.322Z,22.3
2018-09-26T10:02:56.583Z,22.3
2018-09-26T10:04:04.160Z,22.3
2018-09-26T10:05:09.389Z,22.3
2018-09-26T10:06:14.540Z,22.3
2018-09-26T10:07:20.004Z,22.3
2018-09-26T10:08:25.662Z,22.3
2018-09-26T10:09:31.322Z,22.3
2018-09-26T10:10:36.751Z,22.3
2018-09-26T10:11:41.725Z,22.3
2018-09-26T10:12:47.359Z,22.3
2018-09-26T10:13:52.790Z,22.3
2018-09-26T10:14:58.003Z,22.3
2018-09-26T10:16:03.782Z,22.3
2018-09-26T10:17:08.853Z,22.3
2018-09-26T10:18:13.735Z,22.3
2018-09-26T10:19:19.415Z,22.3
2018-09-26T10:20:24.101Z,22.3
2018-09-26T10:21:30.205Z,22.3
2018-09-26T10:22:35.373Z,22.3
2018-09-26T10:23:40.812Z,22.3
2018-09-26T10:24:46.543Z,22.3
2018-09-26T10:25:51.982Z,22.3
2018-09-26T10:26:57.580Z,22.3
2018-09-26T10:28:03.388Z,22.4
2018-09-26T10:29:08.349Z,22.4
2018-09-26T10:30:13.316Z,22.4
2018-09-26T10:31:18.825Z,22.4
2018-09-26T10:32:24.307Z,22.4
2018-09-26T10:33:29.987Z,22.4
2018-09-26T10:34:35.189Z,22.4
2018-09-26T10:35:40.393Z,22.4
2018-09-26T10:36:46.141Z,22.4
2018-09-26T10:38:06.121Z,22.4
2018-09-26T10:39:11.383Z,22.4
2018-09-26T10:40:16.833Z,22.4
2018-09-26T10:41:22.003Z,22.4
2018-09-26T10:43:47.505Z,22.4
2018-09-26T10:44:52.715Z,22.4
2018-09-26T10:45:57.888Z,22.4
2018-09-26T10:47:02.585Z,22.4
2018-09-26T10:48:07.783Z,22.4
2018-09-26T10:49:13.284Z,22.4
2018-09-26T10:50:18.840Z,22.4
2018-09-26T10:51:24.634Z,22.4
2018-09-26T10:52:44.858Z,22.4
2018-09-26T10:53:49.733Z,22.4
2018-09-26T10:54:54.680Z,22.4
2018-09-26T10:55:59.560Z,22.4
2018-09-26T10:57:04.788Z,22.4
2018-09-26T10:58:10.356Z,22.4
2018-09-26T10:59:15.784Z,22.4
2018-09-26T11:00:21.030Z,22.4
2018-09-26T11:01:27.113Z,22.4
2018-09-26T11:02:32.296Z,22.4
2018-09-26T11:03:37.958Z,22.4
2018-09-26T11:04:43.143Z,22.4
2018-09-26T11:05:47.726Z,22.4
2018-09-26T11:06:52.953Z,22.4
2018-09-26T11:07:58.383Z,22.4
2018-09-26T11:09:03.541Z,22.4
2018-09-26T11:10:09.034Z,22.4
2018-09-26T11:11:13.710Z,22.4
2018-09-26T11:12:18.584Z,22.4
2018-09-26T11:13:24.187Z,22.5
2018-09-26T11:14:30.305Z,22.5
2018-09-26T11:15:35.696Z,22.5
2018-09-26T11:16:41.130Z,22.4
2018-09-26T11:17:46.581Z,22.4
2018-09-26T11:18:52.121Z,22.5
2018-09-26T11:19:57.942Z,22.4
2018-09-26T11:21:03.220Z,22.5
2018-09-26T11:22:09.126Z,22.4
2018-09-26T11:23:15.304Z,22.5
2018-09-26T11:24:20.477Z,22.5
2018-09-26T11:25:26.609Z,22.5
2018-09-26T11:26:31.567Z,22.5
2018-09-26T11:27:37.258Z,22.5
2018-09-26T11:28:42.730Z,22.5
2018-09-26T11:29:47.872Z,22.5
2018-09-26T11:30:53.393Z,22.5
2018-09-26T11:31:58.917Z,22.5
2018-09-26T11:33:04.612Z,22.5
2018-09-26T11:34:10.504Z,22.5
2018-09-26T11:35:15.860Z,22.5
2018-09-26T11:36:21.347Z,22.5
2018-09-26T11:37:26.949Z,22.5
2018-09-26T11:38:32.110Z,22.5
2018-09-26T11:39:37.756Z,22.5
2018-09-26T11:40:43.232Z,22.5
2018-09-26T11:41:48.424Z,22.5
2018-09-26T11:42:54.457Z,22.5
2018-09-26T11:43:59.878Z,22.5
2018-09-26T11:45:04.466Z,22.5
2018-09-26T11:46:09.711Z,22.5
2018-09-26T11:47:14.321Z,22.5
2018-09-26T11:48:19.855Z,22.5
2018-09-26T11:49:25.107Z,22.5
2018-09-26T11:50:30.255Z,22.5
2018-09-26T11:51:36.119Z,22.5
2018-09-26T11:52:41.620Z,22.5
2018-09-26T11:53:47.077Z,22.5
2018-09-26T11:54:52.796Z,22.5
2018-09-26T11:55:58.301Z,22.5
2018-09-26T11:57:03.790Z,22.5
2018-09-26T11:58:09.304Z,22.5
2018-09-26T11:59:14.929Z,22.5
2018-09-26T12:00:20.097Z,22.5
2018-09-26T12:01:40.473Z,22.5
2018-09-26T12:02:45.995Z,22.5
2018-09-26T12:03:51.696Z,22.5
2018-09-26T12:04:56.844Z,22.5
2018-09-26T12:06:01.804Z,22.5
2018-09-26T12:07:07.024Z,22.5
2018-09-26T12:08:13.012Z,22.5
2018-09-26T12:09:18.112Z,22.5
2018-09-26T12:10:23.966Z,22.6
2018-09-26T12:11:29.415Z,22.6
2018-09-26T12:12:35.343Z,22.6
2018-09-26T12:13:40.514Z,22.6
2018-09-26T12:14:45.749Z,22.5
2018-09-26T12:15:51.607Z,22.6
2018-09-26T12:16:57.193Z,22.5
2018-09-26T12:18:01.844Z,22.5
2018-09-26T12:19:06.941Z,22.5
2018-09-26T12:20:12.639Z,22.6
2018-09-26T12:21:30.252Z,22.6
2018-09-26T12:22:36.631Z,22.6
2018-09-26T12:23:42.393Z,22.6
2018-09-26T12:24:48.132Z,22.6
2018-09-26T12:25:53.476Z,22.6
2018-09-26T12:26:58.725Z,22.6
2018-09-26T12:28:04.282Z,22.6
2018-09-26T12:29:09.237Z,22.6
2018-09-26T12:30:14.315Z,22.6
2018-09-26T12:31:19.962Z,22.6
2018-09-26T12:32:25.394Z,22.6
2018-09-26T12:33:31.272Z,22.6
2018-09-26T12:34:36.480Z,22.6
2018-09-26T12:35:42.233Z,22.6
2018-09-26T12:36:47.959Z,22.6
2018-09-26T12:37:53.114Z,22.6
2018-09-26T12:38:58.354Z,22.6
2018-09-26T12:40:03.760Z,22.6
2018-09-26T12:41:09.067Z,22.6
2018-09-26T12:42:14.412Z,22.6
2018-09-26T12:43:20.262Z,22.6
2018-09-26T12:44:25.745Z,22.6
2018-09-26T12:45:31.469Z,22.6
2018-09-26T12:46:36.898Z,22.6
2018-09-26T12:47:42.106Z,22.6
2018-09-26T12:48:47.823Z,22.6
2018-09-26T12:49:53.043Z,22.6
2018-09-26T12:50:58.207Z,22.6
2018-09-26T12:52:03.987Z,22.6
2018-09-26T12:53:09.308Z,22.6
2018-09-26T12:54:14.740Z,22.6
2018-09-26T12:55:19.862Z,22.6
2018-09-26T12:56:25.287Z,22.6
2018-09-26T12:57:30.160Z,22.6
2018-09-26T12:58:35.080Z,22.6
2018-09-26T12:59:39.754Z,22.6
2018-09-26T13:00:45.514Z,22.6
2018-09-26T13:01:51.699Z,22.6
2018-09-26T13:02:57.064Z,22.6
2018-09-26T13:04:02.598Z,22.6
2018-09-26T13:05:07.569Z,22.6
2018-09-26T13:06:12.725Z,22.6
2018-09-26T13:07:18.555Z,22.6
2018-09-26T13:08:23.805Z,22.6
2018-09-26T13:09:30.191Z,22.6
2018-09-26T13:10:35.334Z,22.6
2018-09-26T13:11:40.579Z,22.6
2018-09-26T13:12:45.753Z,22.6
2018-09-26T13:13:50.921Z,22.6
2018-09-26T13:14:55.518Z,22.6
2018-09-26T13:16:00.914Z,22.6
2018-09-26T13:17:05.229Z,22.6
2018-09-26T13:18:10.723Z,22.6
2018-09-26T13:19:16.480Z,22.6
2018-09-26T13:20:22.063Z,22.6
2018-09-26T13:21:28.348Z,22.6
2018-09-26T13:22:33.488Z,22.6
2018-09-26T13:23:38.402Z,22.6
2018-09-26T13:24:44.090Z,22.6
2018-09-26T13:25:49.313Z,22.6
2018-09-26T13:26:54.249Z,22.6
2018-09-26T13:27:59.782Z,22.6
2018-09-26T13:29:04.667Z,22.6
2018-09-26T13:30:09.599Z,22.6
2018-09-26T13:31:15.323Z,22.6
2018-09-26T13:32:20.301Z,22.6
2018-09-26T13:33:25.225Z,22.6
2018-09-26T13:34:30.662Z,22.7
2018-09-26T13:35:36.175Z,22.7
2018-09-26T13:36:41.627Z,22.7
2018-09-26T13:37:47.082Z,22.7
2018-09-26T13:38:52.778Z,22.7
2018-09-26T13:39:58.704Z,22.7
2018-09-26T13:41:03.967Z,22.7
2018-09-26T13:42:09.156Z,22.7
2018-09-26T13:43:13.856Z,22.7
2018-09-26T13:44:19.140Z,22.7
2018-09-26T13:46:45.757Z,22.7
2018-09-26T13:47:51.426Z,22.7
2018-09-26T13:48:56.818Z,22.7
2018-09-26T13:50:01.733Z,22.7
2018-09-26T13:51:05.771Z,22.7
2018-09-26T13:52:11.091Z,22.7
2018-09-26T13:53:16.810Z,22.7
2018-09-26T13:54:21.968Z,22.7
2018-09-26T13:55:28.223Z,22.7
2018-09-26T13:56:33.979Z,22.7
2018-09-26T13:57:39.236Z,22.7
2018-09-26T13:58:44.716Z,22.7
2018-09-26T13:59:49.877Z,22.7
2018-09-26T14:00:55.585Z,22.7
2018-09-26T14:02:00.463Z,22.7
2018-09-26T14:03:05.803Z,22.7
2018-09-26T14:04:10.961Z,22.7
2018-09-26T14:05:16.267Z,22.7
2018-09-26T14:06:21.379Z,22.7
2018-09-26T14:07:26.925Z,22.7
2018-09-26T14:08:32.443Z,22.7
2018-09-26T14:09:38.921Z,22.7
2018-09-26T14:10:44.173Z,22.7
2018-09-26T14:11:49.939Z,22.7
2018-09-26T14:12:55.396Z,22.7
2018-09-26T14:14:00.667Z,22.7
2018-09-26T14:15:05.539Z,22.7
2018-09-26T14:16:11.297Z,22.7
2018-09-26T14:17:16.184Z,22.7
2018-09-26T14:18:21.795Z,22.7
2018-09-26T14:19:28.309Z,22.7
2018-09-26T14:20:33.742Z,22.7
2018-09-26T14:21:38.874Z,22.7
2018-09-26T14:22:44.438Z,22.7
2018-09-26T14:23:50.719Z,22.7
2018-09-26T14:24:55.581Z,22.7
2018-09-26T14:26:00.446Z,22.7
2018-09-26T14:27:05.032Z,22.7
2018-09-26T14:28:10.565Z,22.7
2018-09-26T14:29:15.971Z,22.7
2018-09-26T14:30:21.757Z,22.7
2018-09-26T14:31:28.963Z,22.8
2018-09-26T14:32:34.080Z,22.8
2018-09-26T14:33:40.052Z,22.8
2018-09-26T14:34:45.569Z,22.8
2018-09-26T14:35:50.731Z,22.8
2018-09-26T14:36:56.509Z,22.8
2018-09-26T14:38:01.708Z,22.8
2018-09-26T14:39:05.989Z,22.8